createdAt,value
2022-10-22T00:00:43.548Z,99735.13
2022-10-22T00:03:10.620Z,99739.91
2022-10-22T00:05:37.670Z,99724.31
2022-10-22T00:08:04.774Z,99722.13
2022-10-22T00:10:32.065Z,99732.25
2022-10-22T00:12:59.219Z,99729.28
2022-10-22T00:15:26.307Z,99728.19
2022-10-22T00:17:53.389Z,99725.50
2022-10-22T00:20:20.562Z,99721.22
2022-10-22T00:22:47.673Z,99727.19
2022-10-22T00:25:15.269Z,99724.00
2022-10-22T00:27:42.841Z,99717.03
2022-10-22T00:30:10.706Z,99713.56
2022-10-22T00:32:38.312Z,99712.75
2022-10-22T00:35:07.035Z,99705.78
2022-10-22T00:37:34.010Z,99709.84
2022-10-22T00:40:01.244Z,99713.94
2022-10-22T00:42:30.457Z,99706.47
2022-10-22T00:45:04.763Z,99713.81
2022-10-22T00:47:37.870Z,99707.16
2022-10-22T00:50:09.573Z,99706.44
2022-10-22T00:52:37.256Z,99713.22
2022-10-22T00:55:05.449Z,99711.63
2022-10-22T00:57:34.530Z,99718.28
2022-10-22T01:00:02.149Z,99719.88
2022-10-22T01:02:31.034Z,99717.69
2022-10-22T01:04:58.193Z,99713.91
2022-10-22T01:07:26.338Z,99714.13
2022-10-22T01:10:00.033Z,99716.81
2022-10-22T01:12:46.382Z,99718.91
2022-10-22T01:15:25.003Z,99712.72
2022-10-22T01:17:52.101Z,99709.84
2022-10-22T01:20:30.812Z,99709.94
2022-10-22T01:23:22.425Z,99716.16
2022-10-22T01:26:06.828Z,99710.28
2022-10-22T01:28:54.513Z,99719.44
2022-10-22T01:31:24.013Z,99710.41
2022-10-22T01:33:54.832Z,99716.75
2022-10-22T01:36:21.964Z,99715.84
2022-10-22T01:38:50.113Z,99718.75
2022-10-22T01:41:17.718Z,99713.28
2022-10-22T01:43:44.768Z,99716.16
2022-10-22T01:46:13.617Z,99716.47
2022-10-22T01:49:05.476Z,99717.47
2022-10-22T01:51:53.099Z,99711.50
2022-10-22T01:54:29.947Z,99712.53
2022-10-22T01:57:19.708Z,99715.41
2022-10-22T02:00:06.288Z,99714.31
2022-10-22T02:02:43.755Z,99719.19
2022-10-22T02:05:25.549Z,99721.59
2022-10-22T02:07:56.136Z,99718.97
2022-10-22T02:10:24.979Z,99727.94
2022-10-22T02:12:55.175Z,99732.50
2022-10-22T02:15:45.402Z,99727.72
2022-10-22T02:18:14.526Z,99727.44
2022-10-22T02:20:42.650Z,99734.97
2022-10-22T02:23:10.746Z,99737.63
2022-10-22T02:25:42.176Z,99736.56
2022-10-22T02:28:38.511Z,99742.81
2022-10-22T02:31:15.909Z,99741.41
2022-10-22T02:33:47.821Z,99738.16
2022-10-22T02:36:17.717Z,99741.34
2022-10-22T02:38:48.191Z,99739.75
2022-10-22T02:41:16.977Z,99743.00
2022-10-22T02:43:51.407Z,99746.53
2022-10-22T02:46:18.506Z,99747.59
2022-10-22T02:48:45.593Z,99751.78
2022-10-22T02:51:12.768Z,99746.34
2022-10-22T02:53:39.932Z,99745.31
2022-10-22T02:56:07.243Z,99750.31
2022-10-22T02:58:34.452Z,99748.63
2022-10-22T03:01:01.767Z,99745.69
2022-10-22T03:03:28.924Z,99745.38
2022-10-22T03:05:55.949Z,99748.06
2022-10-22T03:08:23.102Z,99748.56
2022-10-22T03:10:50.197Z,99752.03
2022-10-22T03:13:17.297Z,99740.50
2022-10-22T03:15:44.329Z,99738.72
2022-10-22T03:18:11.469Z,99735.59
2022-10-22T03:20:38.448Z,99739.66
2022-10-22T03:23:05.861Z,99743.38
2022-10-22T03:25:34.713Z,99738.50
2022-10-22T03:28:05.384Z,99745.44
2022-10-22T03:30:32.497Z,99745.31
2022-10-22T03:32:59.616Z,99744.47
2022-10-22T03:35:27.046Z,99740.09
2022-10-22T03:37:55.016Z,99740.09
2022-10-22T03:40:22.352Z,99737.19
2022-10-22T03:42:49.417Z,99744.34
2022-10-22T03:45:16.683Z,99742.88
2022-10-22T03:47:43.815Z,99743.56
2022-10-22T03:50:10.922Z,99744.88
2022-10-22T03:52:40.141Z,99741.09
2022-10-22T03:55:08.715Z,99751.19
2022-10-22T03:57:36.009Z,99746.34
2022-10-22T04:00:05.972Z,99744.66
2022-10-22T04:02:33.115Z,99744.88
2022-10-22T04:05:01.165Z,99751.75
2022-10-22T04:07:28.937Z,99751.25
2022-10-22T04:09:56.342Z,99744.69
2022-10-22T04:12:23.347Z,99741.72
2022-10-22T04:14:50.492Z,99741.59
2022-10-22T04:17:17.650Z,99741.84
2022-10-22T04:19:45.566Z,99742.31
2022-10-22T04:22:12.694Z,99746.28
2022-10-22T04:24:39.792Z,99742.25
2022-10-22T04:27:07.748Z,99750.00
2022-10-22T04:29:34.850Z,99747.00
2022-10-22T04:32:02.000Z,99746.81
2022-10-22T04:34:29.300Z,99750.50
2022-10-22T04:36:56.884Z,99750.19
2022-10-22T04:39:23.996Z,99751.00
2022-10-22T04:41:51.086Z,99747.44
2022-10-22T04:44:18.324Z,99749.50
2022-10-22T04:46:46.121Z,99752.69
2022-10-22T04:49:13.252Z,99742.72
2022-10-22T04:51:40.532Z,99750.31
2022-10-22T04:54:08.191Z,99752.19
2022-10-22T04:56:35.812Z,99753.78
2022-10-22T04:59:07.189Z,99753.00
2022-10-22T05:01:42.723Z,99754.41
2022-10-22T05:04:16.285Z,99752.81
2022-10-22T05:06:44.352Z,99752.00
2022-10-22T05:09:17.481Z,99759.97
2022-10-22T05:11:48.802Z,99754.88
2022-10-22T05:14:20.037Z,99753.00
2022-10-22T05:16:48.997Z,99759.16
2022-10-22T05:19:24.251Z,99755.09
2022-10-22T05:21:52.874Z,99756.88
2022-10-22T05:24:19.957Z,99758.16
2022-10-22T05:26:50.658Z,99762.47
2022-10-22T05:29:17.506Z,99763.66
2022-10-22T05:31:44.838Z,99772.41
2022-10-22T05:34:12.041Z,99771.72
2022-10-22T05:36:39.906Z,99771.94
2022-10-22T05:39:07.439Z,99774.25
2022-10-22T05:41:38.332Z,99770.94
2022-10-22T05:44:06.091Z,99782.50
2022-10-22T05:46:36.872Z,99784.38
2022-10-22T05:49:06.170Z,99782.97
2022-10-22T05:51:35.758Z,99782.50
2022-10-22T05:54:05.130Z,99775.72
2022-10-22T05:56:32.904Z,99780.19
2022-10-22T05:59:01.049Z,99778.63
2022-10-22T06:01:30.819Z,99775.13
2022-10-22T06:04:00.619Z,99777.59
2022-10-22T06:06:34.907Z,99778.50
2022-10-22T06:09:07.068Z,99776.69
2022-10-22T06:11:35.290Z,99779.25
2022-10-22T06:14:04.184Z,99773.88
2022-10-22T06:16:32.160Z,99782.25
2022-10-22T06:19:02.217Z,99775.59
2022-10-22T06:21:30.758Z,99782.56
2022-10-22T06:23:58.937Z,99785.25
2022-10-22T06:26:26.695Z,99784.94
2022-10-22T06:28:55.825Z,99784.38
2022-10-22T06:31:23.488Z,99780.47
2022-10-22T06:33:50.611Z,99791.53
2022-10-22T06:36:23.084Z,99786.41
2022-10-22T06:38:54.895Z,99783.97
2022-10-22T06:41:25.750Z,99787.66
2022-10-22T06:43:57.886Z,99789.44
2022-10-22T06:46:26.305Z,99803.50
2022-10-22T06:48:59.014Z,99798.50
2022-10-22T06:51:27.402Z,99803.41
2022-10-22T06:53:58.108Z,99803.19
2022-10-22T06:56:27.652Z,99802.41
2022-10-22T06:58:56.953Z,99794.16
2022-10-22T07:01:30.700Z,99806.19
2022-10-22T07:03:58.687Z,99792.25
2022-10-22T07:06:28.324Z,99805.09
2022-10-22T07:08:57.279Z,99805.81
2022-10-22T07:11:30.478Z,99811.47
2022-10-22T07:14:00.183Z,99809.94
2022-10-22T07:16:31.055Z,99811.41
2022-10-22T07:19:00.698Z,99808.09
2022-10-22T07:21:28.246Z,99813.94
2022-10-22T07:23:55.409Z,99816.75
2022-10-22T07:26:25.031Z,99816.75
2022-10-22T07:28:52.146Z,99814.25
2022-10-22T07:31:19.891Z,99813.25
2022-10-22T07:33:46.881Z,99818.22
2022-10-22T07:36:18.039Z,99814.00
2022-10-22T07:38:53.233Z,99808.38
2022-10-22T07:41:20.274Z,99812.69
2022-10-22T07:43:47.217Z,99809.59
2022-10-22T07:46:14.195Z,99809.22
2022-10-22T07:48:41.389Z,99814.53
2022-10-22T07:51:08.682Z,99810.56
2022-10-22T07:53:35.999Z,99808.19
2022-10-22T07:56:03.184Z,99803.66
2022-10-22T07:58:30.504Z,99811.41
2022-10-22T08:01:00.908Z,99820.13
2022-10-22T08:03:29.181Z,99813.81
2022-10-22T08:05:56.204Z,99818.59
2022-10-22T08:08:25.921Z,99819.41
2022-10-22T08:10:58.826Z,99816.94
2022-10-22T08:13:26.496Z,99810.94
2022-10-22T08:15:57.260Z,99810.00
2022-10-22T08:18:25.355Z,99812.69
2022-10-22T08:20:52.997Z,99814.41
2022-10-22T08:23:24.400Z,99822.50
2022-10-22T08:25:54.657Z,99820.50
2022-10-22T08:28:22.370Z,99818.03
2022-10-22T08:30:49.631Z,99817.47
2022-10-22T08:33:16.775Z,99810.06
2022-10-22T08:35:48.603Z,99813.69
2022-10-22T08:38:15.684Z,99819.75
2022-10-22T08:40:44.476Z,99815.91
2022-10-22T08:43:41.956Z,99813.41
2022-10-22T08:46:17.639Z,99820.06
2022-10-22T08:48:52.795Z,99821.75
2022-10-22T08:51:24.036Z,99824.28
2022-10-22T08:54:21.875Z,99816.31
2022-10-22T08:57:09.698Z,99816.63
2022-10-22T08:59:50.734Z,99814.81
2022-10-22T09:02:33.775Z,99815.25
2022-10-22T09:05:22.847Z,99808.81
2022-10-22T09:07:50.655Z,99806.75
2022-10-22T09:10:21.979Z,99813.31
2022-10-22T09:12:49.118Z,99809.38
2022-10-22T09:15:18.441Z,99808.97
2022-10-22T09:18:31.222Z,99805.81
2022-10-22T09:21:29.304Z,99810.28
2022-10-22T09:24:04.940Z,99810.00
2022-10-22T09:26:35.624Z,99799.72
2022-10-22T09:29:04.208Z,99803.84
2022-10-22T09:31:33.569Z,99802.66
2022-10-22T09:34:06.221Z,99795.50
2022-10-22T09:36:34.512Z,99795.97
2022-10-22T09:39:01.618Z,99798.53
2022-10-22T09:41:30.157Z,99806.75
2022-10-22T09:43:58.416Z,99803.53
2022-10-22T09:46:30.167Z,99796.19
2022-10-22T09:49:06.865Z,99808.41
2022-10-22T09:51:52.088Z,99795.72
2022-10-22T09:54:21.857Z,99808.91
2022-10-22T09:57:03.028Z,99801.28
2022-10-22T09:59:33.460Z,99796.47
2022-10-22T10:02:20.108Z,99797.72
2022-10-22T10:04:57.791Z,99799.19
2022-10-22T10:07:27.390Z,99793.94
2022-10-22T10:09:55.008Z,99790.69
2022-10-22T10:15:27.832Z,99788.78
2022-10-22T10:18:08.790Z,99788.78
2022-10-22T10:20:41.037Z,99796.25
2022-10-22T10:23:25.481Z,99779.44
2022-10-22T10:26:19.891Z,99786.56
2022-10-22T10:29:04.841Z,99794.16
2022-10-22T10:31:53.087Z,99786.22
2022-10-22T10:34:58.415Z,99785.06
2022-10-22T10:37:38.640Z,99789.84
2022-10-22T10:40:20.752Z,99784.78
2022-10-22T10:43:06.705Z,99781.06
2022-10-22T10:46:00.655Z,99785.34
2022-10-22T10:48:46.368Z,99784.69
2022-10-22T10:51:39.521Z,99782.44
2022-10-22T10:54:24.342Z,99779.25
2022-10-22T10:57:02.482Z,99782.75
2022-10-22T10:59:59.082Z,99784.00
2022-10-22T11:02:45.355Z,99783.38
2022-10-22T11:05:39.378Z,99776.78
2022-10-22T11:08:21.432Z,99776.66
2022-10-22T11:11:03.556Z,99766.50
2022-10-22T11:13:46.132Z,99771.44
2022-10-22T11:17:04.030Z,99765.78
2022-10-22T11:19:50.877Z,99755.16
2022-10-22T11:22:27.272Z,99757.88
2022-10-22T11:25:01.473Z,99749.50
2022-10-22T11:27:39.250Z,99749.97
2022-10-22T11:30:15.303Z,99750.25
2022-10-22T11:32:44.599Z,99753.72
2022-10-22T11:35:25.842Z,99753.38
2022-10-22T11:37:56.017Z,99747.50
2022-10-22T11:40:46.693Z,99745.88
2022-10-22T11:43:35.989Z,99747.59
2022-10-22T11:46:08.952Z,99740.44
2022-10-22T11:48:38.388Z,99740.13
2022-10-22T11:51:44.128Z,99737.25
2022-10-22T11:54:37.432Z,99732.34
2022-10-22T11:57:38.181Z,99736.44
2022-10-22T12:00:31.534Z,99738.16
2022-10-22T12:03:33.563Z,99728.03
2022-10-22T12:06:12.707Z,99725.34
2022-10-22T12:08:54.645Z,99729.59
2022-10-22T12:11:37.623Z,99724.34
2022-10-22T12:14:30.080Z,99722.13
2022-10-22T12:17:18.180Z,99714.56
2022-10-22T12:19:47.819Z,99709.78
2022-10-22T12:22:21.870Z,99718.97
2022-10-22T12:24:52.010Z,99707.38
2022-10-22T12:27:23.436Z,99695.47
2022-10-22T12:29:58.223Z,99698.03
2022-10-22T12:32:34.648Z,99711.31
2022-10-22T12:35:09.309Z,99697.25
2022-10-22T12:37:37.789Z,99697.41
2022-10-22T12:40:18.642Z,99695.38
2022-10-22T12:42:51.787Z,99689.53
2022-10-22T12:45:19.347Z,99688.09
2022-10-22T12:47:55.576Z,99683.31
2022-10-22T12:50:31.491Z,99692.03
2022-10-22T12:52:59.333Z,99693.94
2022-10-22T12:55:27.255Z,99694.75
2022-10-22T12:57:54.408Z,99689.19
2022-10-22T13:00:21.779Z,99688.53
2022-10-22T13:02:49.214Z,99692.25
2022-10-22T13:05:17.946Z,99685.06
2022-10-22T13:07:50.922Z,99686.81
2022-10-22T13:10:25.676Z,99695.31
2022-10-22T13:12:57.605Z,99694.53
2022-10-22T13:15:27.615Z,99691.63
2022-10-22T13:18:33.149Z,99695.16
2022-10-22T13:21:03.299Z,99700.19
2022-10-22T13:23:33.359Z,99700.06
2022-10-22T13:26:05.196Z,99696.88
2022-10-22T13:28:32.934Z,99699.59
2022-10-22T13:31:02.930Z,99693.94
2022-10-22T13:33:34.577Z,99694.63
2022-10-22T13:36:02.451Z,99689.56
2022-10-22T13:38:29.659Z,99677.03
2022-10-22T13:40:57.606Z,99676.91
2022-10-22T13:43:25.492Z,99676.34
2022-10-22T13:45:55.875Z,99677.31
2022-10-22T13:48:25.457Z,99679.59
2022-10-22T13:50:53.808Z,99675.41
2022-10-22T13:53:26.688Z,99681.19
2022-10-22T13:55:53.871Z,99676.78
2022-10-22T13:58:25.787Z,99679.19
2022-10-22T14:00:58.466Z,99672.50
2022-10-22T14:03:29.707Z,99672.00
2022-10-22T14:05:57.522Z,99672.94
2022-10-22T14:08:26.356Z,99670.25
2022-10-22T14:10:53.939Z,99676.91
2022-10-22T14:13:21.768Z,99674.09
2022-10-22T14:15:51.611Z,99671.59
2022-10-22T14:18:25.520Z,99667.81
2022-10-22T14:20:55.336Z,99670.34
2022-10-22T14:23:25.727Z,99670.13
2022-10-22T14:25:53.424Z,99667.25
2022-10-22T14:28:20.515Z,99672.13
2022-10-22T14:30:47.740Z,99668.34
2022-10-22T14:33:21.555Z,99669.31
2022-10-22T14:35:49.793Z,99670.13
2022-10-22T14:38:17.070Z,99672.63
2022-10-22T14:40:45.640Z,99673.53
2022-10-22T14:43:33.871Z,99673.34
2022-10-22T14:46:00.853Z,99666.16
2022-10-22T14:48:27.821Z,99667.56
2022-10-22T14:50:54.923Z,99664.09
2022-10-22T14:53:21.946Z,99667.88
2022-10-22T14:55:51.579Z,99668.84
2022-10-22T14:58:18.778Z,99665.56
2022-10-22T15:00:45.776Z,99671.44
2022-10-22T15:03:12.826Z,99680.00
2022-10-22T15:05:44.930Z,99666.56
2022-10-22T15:08:13.698Z,99670.16
2022-10-22T15:10:40.884Z,99667.97
2022-10-22T15:13:08.138Z,99665.16
2022-10-22T15:15:39.462Z,99669.16
2022-10-22T15:18:07.467Z,99669.31
2022-10-22T15:20:34.476Z,99669.31
2022-10-22T15:23:01.389Z,99666.81
2022-10-22T15:25:28.877Z,99669.72
2022-10-22T15:28:00.750Z,99665.94
2022-10-22T15:30:31.827Z,99664.63
2022-10-22T15:32:58.876Z,99673.13
2022-10-22T15:35:28.866Z,99664.44
2022-10-22T15:37:55.912Z,99673.91
2022-10-22T15:40:22.797Z,99676.50
2022-10-22T15:42:49.821Z,99677.16
2022-10-22T15:45:16.898Z,99676.28
2022-10-22T15:47:49.172Z,99679.16
2022-10-22T15:50:17.016Z,99676.28
2022-10-22T15:52:43.956Z,99671.69
2022-10-22T15:55:14.630Z,99680.88
2022-10-22T15:57:41.964Z,99679.75
2022-10-22T16:00:09.673Z,99674.69
2022-10-22T16:02:39.844Z,99676.88
2022-10-22T16:05:07.466Z,99680.66
2022-10-22T16:07:34.370Z,99675.09
2022-10-22T16:10:03.738Z,99683.16
2022-10-22T16:12:30.925Z,99675.41
2022-10-22T16:14:57.830Z,99686.56
2022-10-22T16:17:24.892Z,99671.84
2022-10-22T16:19:51.870Z,99678.03
2022-10-22T16:22:18.863Z,99678.63
2022-10-22T16:24:45.815Z,99682.72
2022-10-22T16:27:12.777Z,99680.53
2022-10-22T16:29:40.249Z,99678.22
2022-10-22T16:32:07.675Z,99678.41
2022-10-22T16:34:34.747Z,99679.22
2022-10-22T16:37:02.718Z,99682.81
2022-10-22T16:39:29.649Z,99670.78
2022-10-22T16:41:56.577Z,99685.09
2022-10-22T16:44:23.858Z,99677.53
2022-10-22T16:46:50.800Z,99677.53
2022-10-22T16:49:17.838Z,99668.78
2022-10-22T16:51:44.933Z,99672.28
2022-10-22T16:54:12.730Z,99669.38
2022-10-22T16:56:40.043Z,99665.41
2022-10-22T16:59:07.590Z,99668.38
2022-10-22T17:01:38.122Z,99668.56
2022-10-22T17:04:09.446Z,99660.72
2022-10-22T17:06:36.485Z,99662.00
2022-10-22T17:09:03.874Z,99654.44
2022-10-22T17:11:35.714Z,99659.81
2022-10-22T17:14:04.584Z,99654.94
2022-10-22T17:16:31.619Z,99652.75
2022-10-22T17:18:58.663Z,99649.28
2022-10-22T17:21:25.770Z,99645.78
2022-10-22T17:23:57.364Z,99643.91
2022-10-22T17:26:26.579Z,99642.31
2022-10-22T17:28:54.102Z,99644.19
2022-10-22T17:31:24.542Z,99642.78
2022-10-22T17:33:53.542Z,99642.50
2022-10-22T17:36:22.012Z,99637.28
2022-10-22T17:38:52.404Z,99643.19
2022-10-22T17:41:24.931Z,99634.03
2022-10-22T17:43:52.720Z,99631.66
2022-10-22T17:46:24.743Z,99637.19
2022-10-22T17:48:53.731Z,99631.81
2022-10-22T17:51:21.660Z,99633.91
2022-10-22T17:53:52.188Z,99622.84
2022-10-22T17:56:22.111Z,99628.72
2022-10-22T17:58:49.694Z,99618.28
2022-10-22T18:01:31.445Z,99624.94
2022-10-22T18:04:04.955Z,99618.16
2022-10-22T18:06:32.585Z,99609.28
2022-10-22T18:08:59.676Z,99613.56
2022-10-22T18:11:28.290Z,99607.09
2022-10-22T18:13:57.417Z,99608.97
2022-10-22T18:16:25.826Z,99601.22
2022-10-22T18:18:54.958Z,99598.84
2022-10-22T18:21:24.139Z,99598.16
2022-10-22T18:23:51.288Z,99601.84
2022-10-22T18:26:21.405Z,99600.25
2022-10-22T18:28:51.316Z,99598.16
2022-10-22T18:31:20.582Z,99595.47
2022-10-22T18:33:48.417Z,99591.66
2022-10-22T18:36:19.303Z,99591.50
2022-10-22T18:39:00.370Z,99589.91
2022-10-22T18:41:29.594Z,99595.06
2022-10-22T18:43:59.093Z,99588.72
2022-10-22T18:46:27.153Z,99587.63
2022-10-22T18:48:55.697Z,99586.84
2022-10-22T18:51:25.751Z,99588.41
2022-10-22T18:54:05.817Z,99586.53
2022-10-22T18:56:43.860Z,99583.34
2022-10-22T18:59:25.070Z,99579.47
2022-10-22T19:01:54.546Z,99578.47
2022-10-22T19:04:21.990Z,99581.34
2022-10-22T19:06:49.044Z,99578.66
2022-10-22T19:09:16.730Z,99574.97
2022-10-22T19:11:45.218Z,99573.56
2022-10-22T19:14:15.603Z,99578.94
2022-10-22T19:16:42.740Z,99580.34
2022-10-22T19:19:09.720Z,99571.19
2022-10-22T19:21:37.982Z,99573.28
2022-10-22T19:24:05.176Z,99574.34
2022-10-22T19:26:32.651Z,99570.88
2022-10-22T19:29:00.276Z,99576.78
2022-10-22T19:31:30.124Z,99579.47
2022-10-22T19:33:58.545Z,99574.56
2022-10-22T19:36:28.315Z,99579.34
2022-10-22T19:38:55.938Z,99572.38
2022-10-22T19:41:24.981Z,99576.06
2022-10-22T19:43:53.924Z,99573.28
2022-10-22T19:46:23.104Z,99576.47
2022-10-22T19:48:51.522Z,99573.50
2022-10-22T19:51:27.549Z,99575.38
2022-10-22T19:54:04.286Z,99572.41
2022-10-22T19:56:33.883Z,99580.47
2022-10-22T19:59:01.054Z,99574.59
2022-10-22T20:01:28.361Z,99579.38
2022-10-22T20:03:55.392Z,99571.91
2022-10-22T20:06:22.340Z,99571.91
2022-10-22T20:08:52.377Z,99570.44
2022-10-22T20:11:25.292Z,99571.03
2022-10-22T20:13:52.783Z,99575.91
2022-10-22T20:16:23.267Z,99572.63
2022-10-22T20:18:51.645Z,99572.63
2022-10-22T20:21:19.894Z,99571.53
2022-10-22T20:23:49.184Z,99580.19
2022-10-22T20:26:16.139Z,99575.59
2022-10-22T20:28:43.056Z,99574.03
2022-10-22T20:31:12.065Z,99573.22
2022-10-22T20:33:39.497Z,99564.56
2022-10-22T20:36:09.708Z,99562.16
2022-10-22T20:41:12.428Z,99564.06
2022-10-22T20:43:39.301Z,99562.69
2022-10-22T20:46:06.414Z,99555.50
2022-10-22T20:48:33.748Z,99554.41
2022-10-22T20:51:01.811Z,99556.31
2022-10-22T20:53:28.916Z,99552.34
2022-10-22T20:55:59.063Z,99551.25
2022-10-22T20:58:27.761Z,99556.13
2022-10-22T21:00:55.577Z,99551.25
2022-10-22T21:03:22.992Z,99550.75
2022-10-22T21:05:50.451Z,99551.81
2022-10-22T21:08:17.823Z,99551.72
2022-10-22T21:10:49.262Z,99553.81
2022-10-22T21:13:16.972Z,99549.44
2022-10-22T21:15:44.620Z,99552.28
2022-10-22T21:18:11.661Z,99550.13
2022-10-22T21:20:41.974Z,99543.91
2022-10-22T21:23:10.358Z,99543.84
2022-10-22T21:25:40.800Z,99537.09
2022-10-22T21:28:10.306Z,99537.09
2022-10-22T21:30:37.388Z,99536.88
2022-10-22T21:33:04.308Z,99537.41
2022-10-22T21:35:32.511Z,99530.53
2022-10-22T21:37:59.451Z,99531.50
2022-10-22T21:40:27.669Z,99533.09
2022-10-22T21:42:54.645Z,99524.94
2022-10-22T21:45:22.575Z,99519.88
2022-10-22T21:47:49.687Z,99514.97
2022-10-22T21:50:16.838Z,99513.56
2022-10-22T21:52:43.794Z,99512.50
2022-10-22T21:55:10.889Z,99507.38
2022-10-22T21:57:39.203Z,99504.91
2022-10-22T22:00:08.239Z,99497.31
2022-10-22T22:02:35.275Z,99493.06
2022-10-22T22:05:02.223Z,99500.31
2022-10-22T22:07:30.268Z,99489.88
2022-10-22T22:09:57.264Z,99488.56
2022-10-22T22:12:24.365Z,99491.25
2022-10-22T22:14:51.247Z,99487.47
2022-10-22T22:17:18.728Z,99489.88
2022-10-22T22:19:45.635Z,99475.94
2022-10-22T22:22:12.577Z,99477.81
2022-10-22T22:24:39.962Z,99478.13
2022-10-22T22:27:07.492Z,99477.34
2022-10-22T22:29:34.824Z,99477.75
2022-10-22T22:32:01.847Z,99473.72
2022-10-22T22:34:28.861Z,99469.03
2022-10-22T22:36:55.804Z,99467.88
2022-10-22T22:39:23.638Z,99465.78
2022-10-22T22:41:50.938Z,99467.72
2022-10-22T22:44:18.113Z,99464.69
2022-10-22T22:46:45.188Z,99461.50
2022-10-22T22:49:13.426Z,99452.84
2022-10-22T22:51:40.331Z,99450.94
2022-10-22T22:54:07.514Z,99442.56
2022-10-22T22:56:34.744Z,99439.78
2022-10-22T22:59:02.644Z,99439.78
2022-10-22T23:01:34.304Z,99433.59
2022-10-22T23:04:13.190Z,99435.00
2022-10-22T23:06:40.381Z,99433.25
2022-10-22T23:09:09.939Z,99431.34
2022-10-22T23:11:37.203Z,99435.00
2022-10-22T23:14:06.379Z,99426.94
2022-10-22T23:16:36.822Z,99424.72
2022-10-22T23:19:05.544Z,99420.66
2022-10-22T23:21:35.949Z,99418.28
2022-10-22T23:24:06.078Z,99406.72
2022-10-22T23:26:38.751Z,99406.72
2022-10-22T23:29:09.148Z,99403.25
2022-10-22T23:31:36.327Z,99407.03
2022-10-22T23:34:03.566Z,99401.84
2022-10-22T23:36:30.630Z,99410.41
2022-10-22T23:38:57.664Z,99403.44
2022-10-22T23:41:24.729Z,99395.06
2022-10-22T23:43:51.758Z,99395.06
2022-10-22T23:46:18.775Z,99396.03
2022-10-22T23:48:45.839Z,99388.78
2022-10-22T23:51:15.410Z,99397.44
2022-10-22T23:53:44.311Z,99385.41
2022-10-22T23:56:15.325Z,99377.16
2022-10-22T23:58:42.730Z,99381.25
